Time;durP1;ratioP1;P1;durP2;ratioP2;P2;SDS_P1;SDS_P2;PMS_P1;PMS_P2;Temp;Humidity;BMP_temperature;BMP_pressure;BME280_temperature;BME280_humidity;BME280_pressure;Samples;Min_cycle;Max_cycle;Signal;HPM_P1;HPM_P2
2021/12/18 00:00:07;;;;;;;5.90;5.60;;;6.00;35.60;;;;;;6213583;28;20250;-59
2021/12/18 00:03:10;;;;;;;6.13;5.83;;;6.10;33.70;;;;;;6213363;28;20310;-59
2021/12/18 00:06:13;;;;;;;6.47;5.97;;;5.80;33.60;;;;;;6211996;28;20274;-58
2021/12/18 00:09:17;;;;;;;6.33;5.97;;;6.10;33.50;;;;;;6212940;28;20242;-55
2021/12/18 00:12:21;;;;;;;6.47;6.03;;;6.00;33.70;;;;;;6218647;28;20337;-59
2021/12/18 00:15:25;;;;;;;5.67;5.33;;;5.80;33.50;;;;;;6223833;28;20318;-59
2021/12/18 00:18:29;;;;;;;6.60;5.73;;;5.90;33.70;;;;;;6229828;28;20226;-58
2021/12/18 00:21:36;;;;;;;6.07;5.67;;;5.90;34.40;;;;;;6233565;28;20318;-59
2021/12/18 00:24:39;;;;;;;6.70;6.30;;;6.10;35.70;;;;;;6219904;28;20234;-59
2021/12/18 00:27:43;;;;;;;6.87;6.30;;;6.00;34.90;;;;;;6237524;28;20242;-58
2021/12/18 00:30:51;;;;;;;6.93;6.33;;;5.90;34.70;;;;;;6236507;28;20277;-59
2021/12/18 00:33:54;;;;;;;9.33;7.13;;;5.90;33.90;;;;;;6217506;28;20270;-59
2021/12/18 00:36:57;;;;;;;6.67;6.30;;;6.10;34.10;;;;;;6230457;28;20450;-59
2021/12/18 00:40:01;;;;;;;6.40;6.00;;;6.10;34.90;;;;;;6236426;28;20384;-58
2021/12/18 00:43:20;;;;;;;7.23;6.50;;;5.90;34.50;;;;;;6218530;28;20235;-60
2021/12/18 00:46:23;;;;;;;7.43;6.90;;;6.00;34.70;;;;;;6213604;28;20854;-58
2021/12/18 00:49:26;;;;;;;7.23;6.53;;;5.90;35.00;;;;;;6235112;28;20254;-60
2021/12/18 00:52:29;;;;;;;7.00;6.50;;;6.10;35.00;;;;;;6235148;28;20752;-60
2021/12/18 00:55:33;;;;;;;6.50;6.10;;;5.90;35.30;;;;;;6226537;28;21029;-59
2021/12/18 00:58:38;;;;;;;7.10;6.70;;;5.80;35.40;;;;;;6234805;28;20233;-58
2021/12/18 01:01:40;;;;;;;6.57;6.00;;;6.00;35.30;;;;;;6234441;28;20234;-59
2021/12/18 01:04:43;;;;;;;5.90;5.70;;;6.10;35.50;;;;;;6230267;28;20238;-59
2021/12/18 01:07:46;;;;;;;5.80;5.60;;;6.20;36.00;;;;;;6236103;28;20719;-59
2021/12/18 01:11:09;;;;;;;5.70;5.50;;;6.10;34.90;;;;;;6234713;28;20242;-58
2021/12/18 01:14:30;;;;;;;5.60;5.40;;;6.00;34.40;;;;;;6185660;28;20268;-60
2021/12/18 01:24:13;;;;;;;5.97;5.43;;;6.10;36.30;;;;;;6208629;28;20652;-60
2021/12/18 01:27:16;;;;;;;4.80;4.70;;;5.90;36.70;;;;;;6222677;28;20234;-60
2021/12/18 01:30:20;;;;;;;5.60;5.30;;;6.10;36.90;;;;;;6234793;28;20373;-59
2021/12/18 01:33:23;;;;;;;5.30;5.10;;;5.90;37.70;;;;;;6233460;28;20258;-58
2021/12/18 01:36:28;;;;;;;5.00;4.80;;;5.80;38.50;;;;;;6209849;28;20235;-60
2021/12/18 01:39:31;;;;;;;5.20;5.00;;;5.80;39.30;;;;;;6210348;28;20235;-59
2021/12/18 01:46:14;;;;;;;5.30;5.17;;;5.90;41.00;;;;;;6209265;28;20285;-57
2021/12/18 01:52:38;;;;;;;5.20;5.00;;;5.70;40.60;;;;;;6214439;28;20239;-60
2021/12/18 01:55:44;;;;;;;5.17;4.97;;;5.40;41.90;;;;;;6226012;28;20393;-60
2021/12/18 01:58:47;;;;;;;5.00;4.70;;;6.10;42.40;;;;;;6233572;28;20511;-61
2021/12/18 02:01:51;;;;;;;5.53;5.13;;;5.80;43.90;;;;;;6209843;28;20285;-60
2021/12/18 02:04:55;;;;;;;5.03;4.80;;;5.80;43.60;;;;;;6209038;28;20735;-59
2021/12/18 02:07:59;;;;;;;4.83;4.63;;;6.10;43.80;;;;;;6209593;28;20321;-59
2021/12/18 02:11:12;;;;;;;5.20;4.90;;;5.90;43.00;;;;;;6209577;28;20243;-59
2021/12/18 02:14:35;;;;;;;4.33;4.23;;;5.90;43.80;;;;;;6195637;28;20382;-59
2021/12/18 02:21:07;;;;;;;4.73;4.50;;;5.90;44.70;;;;;;6227111;28;20227;-59
2021/12/18 02:24:11;;;;;;;5.70;5.40;;;6.20;45.10;;;;;;6214764;28;20251;-59
2021/12/18 02:27:14;;;;;;;5.23;5.03;;;6.00;45.00;;;;;;6233502;28;20242;-59
2021/12/18 02:30:17;;;;;;;5.87;5.40;;;6.20;44.30;;;;;;6215421;28;20330;-59
2021/12/18 02:33:21;;;;;;;5.87;5.47;;;6.20;45.50;;;;;;6213989;28;20246;-58
2021/12/18 02:36:25;;;;;;;5.10;4.73;;;6.10;45.20;;;;;;6213882;28;20250;-59
2021/12/18 02:39:43;;;;;;;4.80;4.60;;;5.80;44.70;;;;;;6213815;28;20231;-59
2021/12/18 02:42:51;;;;;;;5.93;5.53;;;6.30;44.50;;;;;;6214192;28;20262;-59
2021/12/18 02:45:59;;;;;;;4.90;4.70;;;6.20;43.10;;;;;;6214089;28;20243;-59
2021/12/18 02:49:07;;;;;;;5.37;5.13;;;6.30;42.80;;;;;;6230624;28;20765;-60
2021/12/18 02:52:11;;;;;;;5.00;4.90;;;6.10;43.60;;;;;;6206034;28;20239;-58
2021/12/18 02:55:14;;;;;;;5.27;5.07;;;6.20;44.10;;;;;;6211467;28;20966;-59
2021/12/18 02:58:17;;;;;;;5.00;4.80;;;6.00;44.50;;;;;;6235393;28;20604;-60
2021/12/18 03:01:22;;;;;;;4.90;4.63;;;6.00;44.90;;;;;;6238356;28;20255;-59
2021/12/18 03:04:31;;;;;;;5.57;5.27;;;6.10;45.10;;;;;;6223535;28;20305;-59
2021/12/18 03:07:35;;;;;;;5.57;5.07;;;6.10;45.10;;;;;;6213218;28;20243;-60
2021/12/18 03:27:21;;;;;;;5.83;5.53;;;6.00;47.50;;;;;;6201703;28;20471;-59
2021/12/18 03:30:24;;;;;;;5.67;5.43;;;6.20;48.00;;;;;;6201442;28;20329;-58
2021/12/18 03:33:28;;;;;;;6.20;5.83;;;6.00;48.80;;;;;;6186712;28;20544;-58
2021/12/18 03:36:30;;;;;;;5.53;5.27;;;6.00;48.40;;;;;;6206480;28;20239;-58
2021/12/18 03:39:35;;;;;;;6.40;6.00;;;6.10;48.70;;;;;;6211470;28;20236;-59
2021/12/18 03:42:38;;;;;;;6.03;5.73;;;6.20;48.90;;;;;;6212408;28;20628;-59
2021/12/18 03:45:41;;;;;;;5.87;5.53;;;6.20;49.30;;;;;;6211578;28;20239;-59
2021/12/18 03:48:44;;;;;;;5.83;5.43;;;6.30;48.80;;;;;;6231900;28;20280;-59
2021/12/18 03:51:47;;;;;;;6.23;5.93;;;6.20;47.40;;;;;;6211710;28;20330;-59
2021/12/18 03:54:51;;;;;;;6.33;5.97;;;6.20;47.20;;;;;;6211954;28;20239;-59
2021/12/18 03:57:54;;;;;;;6.07;5.73;;;6.10;47.70;;;;;;6236103;28;20273;-59
2021/12/18 04:00:56;;;;;;;6.43;5.93;;;6.10;47.90;;;;;;6213431;28;20231;-56
2021/12/18 04:03:59;;;;;;;6.50;6.10;;;6.30;48.80;;;;;;6211504;28;20258;-59
2021/12/18 04:07:04;;;;;;;6.63;6.27;;;6.30;49.40;;;;;;6221800;28;20249;-60
2021/12/18 04:10:09;;;;;;;6.47;6.07;;;5.90;50.10;;;;;;6232009;28;20258;-59
2021/12/18 04:13:12;;;;;;;6.23;5.93;;;6.30;50.50;;;;;;6218952;28;20588;-58
2021/12/18 04:16:16;;;;;;;6.43;6.13;;;6.10;50.40;;;;;;6229167;28;20739;-60
2021/12/18 04:19:19;;;;;;;6.47;6.03;;;6.20;50.50;;;;;;6227056;28;20312;-59
2021/12/18 04:22:23;;;;;;;7.20;6.70;;;6.10;50.40;;;;;;6213999;28;20731;-60
2021/12/18 04:25:27;;;;;;;7.30;6.90;;;6.30;50.50;;;;;;6218573;28;20235;-59
2021/12/18 04:28:30;;;;;;;6.87;6.37;;;6.30;50.50;;;;;;6208057;28;20383;-58
2021/12/18 04:31:33;;;;;;;6.97;6.57;;;5.90;50.90;;;;;;6213433;28;20738;-64
2021/12/18 04:34:36;;;;;;;7.10;6.67;;;6.20;50.40;;;;;;6232524;28;20621;-59
2021/12/18 04:37:38;;;;;;;6.87;6.37;;;6.00;50.20;;;;;;6228180;28;20262;-59
2021/12/18 04:40:43;;;;;;;7.63;7.13;;;5.90;50.20;;;;;;6227982;28;20230;-59
2021/12/18 04:43:46;;;;;;;7.50;6.90;;;6.00;50.20;;;;;;6232984;28;20664;-59
2021/12/18 04:46:49;;;;;;;6.67;6.27;;;5.90;50.10;;;;;;6231567;28;20242;-59
2021/12/18 04:49:52;;;;;;;6.90;6.50;;;6.00;50.30;;;;;;6226879;28;20266;-59
2021/12/18 04:52:55;;;;;;;7.23;6.63;;;6.10;50.50;;;;;;6224988;28;20718;-59
2021/12/18 04:55:59;;;;;;;6.70;6.20;;;6.10;50.70;;;;;;6228567;28;20455;-59
2021/12/18 04:59:02;;;;;;;6.87;6.47;;;6.00;50.30;;;;;;6234879;28;20257;-60
2021/12/18 05:02:05;;;;;;;6.40;6.00;;;6.10;50.40;;;;;;6231052;28;20349;-58
2021/12/18 05:05:10;;;;;;;6.33;5.83;;;6.00;50.30;;;;;;6240196;28;20238;-59
2021/12/18 05:08:13;;;;;;;5.20;5.00;;;6.00;51.20;;;;;;6235606;28;20424;-57
2021/12/18 05:11:17;;;;;;;5.20;5.00;;;6.30;51.00;;;;;;6234559;28;20244;-58
2021/12/18 05:14:21;;;;;;;5.23;5.03;;;6.10;51.70;;;;;;6232708;28;20325;-59
2021/12/18 05:17:24;;;;;;;5.20;5.00;;;6.30;52.60;;;;;;6237624;28;20243;-60
2021/12/18 05:20:27;;;;;;;5.37;4.87;;;6.00;52.50;;;;;;6232090;28;20308;-60
2021/12/18 05:23:30;;;;;;;5.47;5.13;;;5.90;52.90;;;;;;6235082;28;20238;-59
2021/12/18 05:26:34;;;;;;;5.10;4.90;;;6.20;53.80;;;;;;6233922;28;20235;-59
2021/12/18 05:29:37;;;;;;;5.43;5.23;;;6.20;54.20;;;;;;6233088;28;20400;-59
2021/12/18 05:32:40;;;;;;;5.63;5.43;;;6.30;55.10;;;;;;6211035;28;20246;-59
2021/12/18 05:35:42;;;;;;;5.87;5.57;;;6.30;55.30;;;;;;6232140;28;20849;-60
2021/12/18 05:38:45;;;;;;;5.60;5.20;;;6.10;55.30;;;;;;6234754;28;20238;-58
2021/12/18 05:41:50;;;;;;;5.20;5.00;;;6.20;56.10;;;;;;6237824;28;20265;-59
2021/12/18 05:44:53;;;;;;;5.30;5.00;;;6.00;56.00;;;;;;6242235;28;20573;-58
2021/12/18 05:47:56;;;;;;;5.60;5.30;;;6.20;56.10;;;;;;6229067;28;20392;-60
2021/12/18 05:50:59;;;;;;;6.10;5.80;;;6.20;56.20;;;;;;6237236;28;20234;-59
2021/12/18 05:54:02;;;;;;;5.80;5.50;;;6.00;56.90;;;;;;6237248;28;20241;-59
2021/12/18 05:57:09;;;;;;;5.10;4.80;;;6.20;56.00;;;;;;6229665;28;20503;-60
2021/12/18 06:00:13;;;;;;;5.67;5.37;;;6.00;56.20;;;;;;6237182;28;20257;-60
2021/12/18 06:03:16;;;;;;;6.17;5.87;;;6.00;56.60;;;;;;6239801;28;20523;-60
2021/12/18 06:06:20;;;;;;;6.07;5.67;;;6.30;56.30;;;;;;6235316;28;20242;-61
2021/12/18 06:09:23;;;;;;;6.23;5.83;;;6.10;56.10;;;;;;6239245;28;20332;-59
2021/12/18 06:12:27;;;;;;;6.13;5.83;;;6.30;56.80;;;;;;6212782;28;20569;-59
2021/12/18 06:15:31;;;;;;;5.43;5.13;;;6.10;56.30;;;;;;6220457;28;20364;-57
2021/12/18 06:18:35;;;;;;;5.20;5.00;;;6.30;56.00;;;;;;6239330;28;20296;-58
2021/12/18 06:21:37;;;;;;;5.47;5.27;;;6.30;56.40;;;;;;6238211;28;20246;-58
2021/12/18 06:24:44;;;;;;;4.77;4.57;;;6.30;56.50;;;;;;6233295;28;20406;-60
2021/12/18 06:27:48;;;;;;;5.40;5.17;;;6.10;56.10;;;;;;6239808;28;20249;-58
2021/12/18 06:30:53;;;;;;;5.63;5.33;;;6.30;56.80;;;;;;6245837;28;20786;-58
2021/12/18 06:33:56;;;;;;;5.63;5.37;;;6.30;56.60;;;;;;6238252;28;20354;-60
2021/12/18 06:36:59;;;;;;;5.10;4.90;;;6.20;56.70;;;;;;6239421;28;20253;-58
2021/12/18 06:40:03;;;;;;;6.33;6.00;;;6.10;56.10;;;;;;6235683;28;20650;-59
2021/12/18 06:43:14;;;;;;;5.87;5.57;;;6.20;55.60;;;;;;6239807;28;20715;-61
2021/12/18 06:46:17;;;;;;;5.23;4.93;;;6.30;56.20;;;;;;6238956;28;20605;-60
2021/12/18 06:49:20;;;;;;;4.83;4.63;;;6.10;55.80;;;;;;6239369;28;20238;-59
2021/12/18 06:52:22;;;;;;;5.47;5.27;;;6.00;55.10;;;;;;6238658;28;20242;-59
2021/12/18 06:55:25;;;;;;;6.07;5.77;;;6.20;55.40;;;;;;6232860;28;20249;-61
2021/12/18 06:58:29;;;;;;;6.17;5.87;;;6.10;56.00;;;;;;6239252;28;20238;-60
2021/12/18 07:01:32;;;;;;;5.07;4.87;;;6.10;56.30;;;;;;6238425;28;20464;-57
2021/12/18 07:04:37;;;;;;;5.97;5.47;;;6.30;57.10;;;;;;6236797;28;20549;-60
2021/12/18 07:07:40;;;;;;;5.73;5.50;;;6.20;57.10;;;;;;6236199;28;20360;-59
2021/12/18 07:10:43;;;;;;;5.70;5.50;;;6.10;56.20;;;;;;6237327;28;20293;-59
2021/12/18 07:13:47;;;;;;;5.47;5.30;;;5.90;56.10;;;;;;6238158;28;20312;-61
2021/12/18 07:16:50;;;;;;;5.70;5.40;;;6.20;56.60;;;;;;6234885;28;20317;-60
2021/12/18 07:19:52;;;;;;;5.30;5.10;;;6.10;56.30;;;;;;6228208;28;20253;-60
2021/12/18 07:22:55;;;;;;;5.43;5.13;;;6.30;57.00;;;;;;6236111;28;20323;-60
2021/12/18 07:25:58;;;;;;;5.20;5.10;;;6.10;56.80;;;;;;6239585;28;20283;-61
2021/12/18 07:29:02;;;;;;;5.73;5.43;;;6.20;56.60;;;;;;6239709;28;20273;-59
2021/12/18 07:32:05;;;;;;;5.70;5.50;;;6.30;57.20;;;;;;6237136;28;20230;-60
2021/12/18 07:35:27;;;;;;;5.43;5.23;;;6.30;57.80;;;;;;6230905;28;20234;-60
2021/12/18 07:38:30;;;;;;;6.67;6.30;;;6.10;57.70;;;;;;6236910;28;20625;-61
2021/12/18 07:41:33;;;;;;;7.00;6.60;;;6.20;57.20;;;;;;6233511;28;20380;-60
2021/12/18 07:44:39;;;;;;;6.90;6.50;;;6.20;56.80;;;;;;6236250;28;20372;-59
2021/12/18 07:47:42;;;;;;;7.87;7.27;;;6.40;57.00;;;;;;6231949;28;20321;-61
2021/12/18 07:50:45;;;;;;;8.00;7.40;;;6.20;57.10;;;;;;6227048;28;20235;-61
2021/12/18 07:53:48;;;;;;;8.70;8.10;;;6.20;56.80;;;;;;6208812;28;20313;-62
2021/12/18 07:56:50;;;;;;;8.07;7.57;;;6.20;56.80;;;;;;6208720;28;20565;-60
2021/12/18 07:59:54;;;;;;;8.37;7.77;;;6.40;57.30;;;;;;6225629;28;20496;-60
2021/12/18 08:02:57;;;;;;;8.17;7.67;;;6.20;56.70;;;;;;6237052;28;20353;-60
2021/12/18 08:06:02;;;;;;;8.63;8.03;;;6.10;57.20;;;;;;6236222;28;20242;-59
2021/12/18 08:09:05;;;;;;;8.43;7.73;;;6.30;58.10;;;;;;6236469;28;20305;-61
2021/12/18 08:12:08;;;;;;;8.00;7.30;;;6.10;57.80;;;;;;6234427;28;20730;-59
2021/12/18 08:15:12;;;;;;;7.57;6.97;;;6.40;58.40;;;;;;6236640;28;20719;-63
2021/12/18 08:18:15;;;;;;;7.10;6.70;;;6.30;58.20;;;;;;6235473;28;20412;-59
2021/12/18 08:21:17;;;;;;;7.13;6.67;;;6.20;58.40;;;;;;6233952;28;20231;-60
2021/12/18 08:24:20;;;;;;;6.83;6.43;;;6.50;58.30;;;;;;6234611;28;20638;-61
2021/12/18 08:27:23;;;;;;;6.20;5.90;;;6.20;58.10;;;;;;6237063;28;20837;-60
2021/12/18 08:30:28;;;;;;;5.90;5.60;;;6.10;57.60;;;;;;6235206;28;20653;-58
2021/12/18 08:33:31;;;;;;;5.87;5.57;;;6.20;58.20;;;;;;6232958;28;20249;-61
2021/12/18 08:36:33;;;;;;;5.67;5.37;;;6.10;57.40;;;;;;6241529;28;20325;-60
2021/12/18 08:39:36;;;;;;;5.00;4.80;;;6.20;56.70;;;;;;6235600;28;20239;-59
2021/12/18 08:42:39;;;;;;;4.80;4.70;;;6.10;54.00;;;;;;6244802;28;20245;-60
2021/12/18 08:45:44;;;;;;;4.87;4.67;;;5.90;53.60;;;;;;6221680;28;20229;-60
2021/12/18 08:48:46;;;;;;;4.40;4.20;;;6.10;53.30;;;;;;6201212;28;20367;-58
2021/12/18 08:51:49;;;;;;;4.70;4.60;;;6.20;51.10;;;;;;6227821;28;20268;-59
2021/12/18 08:54:52;;;;;;;4.27;4.17;;;5.90;50.40;;;;;;6233453;28;20246;-59
2021/12/18 08:57:55;;;;;;;4.07;3.97;;;6.00;51.80;;;;;;6231417;28;20238;-61
2021/12/18 09:01:00;;;;;;;4.40;4.20;;;6.00;52.00;;;;;;6235616;28;20373;-59
2021/12/18 09:04:03;;;;;;;5.60;5.40;;;6.00;52.90;;;;;;6236357;28;20310;-60
2021/12/18 09:07:07;;;;;;;5.53;5.23;;;6.20;52.00;;;;;;6229611;28;20226;-64
2021/12/18 09:10:14;;;;;;;5.80;5.50;;;6.20;51.80;;;;;;6234187;28;20357;-60
2021/12/18 09:13:17;;;;;;;5.67;5.37;;;6.30;53.30;;;;;;6234467;28;20241;-61
2021/12/18 09:16:21;;;;;;;5.50;5.20;;;6.10;53.50;;;;;;6238267;28;20254;-62
2021/12/18 09:19:24;;;;;;;6.03;5.73;;;6.30;54.50;;;;;;6237316;28;20235;-59
2021/12/18 09:22:27;;;;;;;5.67;5.47;;;6.30;54.30;;;;;;6242058;28;20256;-59
2021/12/18 09:25:29;;;;;;;6.70;6.30;;;6.40;54.80;;;;;;6237317;28;20817;-59
2021/12/18 09:28:32;;;;;;;6.93;6.53;;;6.20;54.90;;;;;;6230176;28;20276;-60
2021/12/18 09:31:36;;;;;;;6.23;5.93;;;6.20;54.70;;;;;;6234036;28;20376;-61
2021/12/18 09:34:39;;;;;;;6.33;5.93;;;6.40;55.00;;;;;;6227266;28;20377;-59
2021/12/18 09:37:43;;;;;;;6.70;6.30;;;6.40;55.00;;;;;;6233941;28;20338;-60
2021/12/18 09:40:45;;;;;;;6.80;6.20;;;6.40;55.00;;;;;;6243504;28;20431;-60
2021/12/18 09:43:48;;;;;;;7.20;6.67;;;6.20;54.20;;;;;;6240206;28;20234;-60
2021/12/18 09:46:53;;;;;;;7.13;6.63;;;6.40;55.00;;;;;;6237296;28;20333;-60
2021/12/18 09:49:56;;;;;;;6.30;6.00;;;6.50;56.30;;;;;;6241118;28;20411;-61
2021/12/18 09:52:59;;;;;;;6.37;5.97;;;6.50;55.80;;;;;;6230119;28;20247;-59
2021/12/18 09:56:02;;;;;;;6.13;5.70;;;6.30;56.50;;;;;;6230200;28;20607;-60
2021/12/18 09:59:05;;;;;;;7.07;6.67;;;6.40;57.40;;;;;;6234659;28;20397;-58
2021/12/18 10:02:10;;;;;;;6.63;6.13;;;6.40;57.70;;;;;;6227431;28;20258;-60
2021/12/18 10:05:25;;;;;;;7.37;6.97;;;6.50;58.20;;;;;;6241621;28;20448;-59
2021/12/18 10:08:27;;;;;;;6.97;6.53;;;6.50;58.80;;;;;;6237192;28;20321;-59
2021/12/18 10:11:30;;;;;;;7.30;6.70;;;6.50;58.30;;;;;;6239110;28;20244;-60
2021/12/18 10:14:37;;;;;;;7.63;6.93;;;6.60;59.50;;;;;;6235373;28;20246;-60
2021/12/18 10:17:42;;;;;;;6.27;5.97;;;6.60;57.90;;;;;;6239891;28;21004;-60
2021/12/18 10:20:45;;;;;;;5.13;4.93;;;6.70;58.40;;;;;;6238450;28;20348;-60
2021/12/18 10:23:50;;;;;;;6.10;5.60;;;6.50;57.00;;;;;;6238006;28;20238;-59
2021/12/18 10:26:53;;;;;;;5.90;5.53;;;6.60;57.40;;;;;;6216167;28;20387;-60
2021/12/18 10:30:09;;;;;;;6.60;6.10;;;6.90;57.90;;;;;;6235980;28;20350;-59
2021/12/18 10:33:14;;;;;;;6.37;5.97;;;6.60;57.20;;;;;;6229404;28;20680;-60
2021/12/18 10:36:17;;;;;;;7.03;6.60;;;6.60;57.60;;;;;;6216407;28;20262;-59
2021/12/18 10:39:20;;;;;;;5.93;5.53;;;6.60;57.40;;;;;;6237339;28;20226;-61
2021/12/18 10:42:25;;;;;;;5.20;4.93;;;6.70;57.40;;;;;;6222323;28;20269;-58
2021/12/18 10:45:35;;;;;;;5.27;5.03;;;6.70;57.90;;;;;;6227479;28;20385;-59
2021/12/18 10:48:39;;;;;;;5.23;5.03;;;6.70;57.70;;;;;;6231659;28;20235;-60
2021/12/18 10:51:43;;;;;;;5.60;5.37;;;6.80;57.60;;;;;;6226119;28;20346;-60
2021/12/18 10:54:46;;;;;;;5.10;4.90;;;6.80;57.00;;;;;;6239228;28;20291;-60
2021/12/18 10:57:52;;;;;;;5.17;4.87;;;6.90;57.30;;;;;;6246450;28;20254;-59
2021/12/18 11:00:58;;;;;;;5.47;5.20;;;6.90;56.80;;;;;;6251656;28;20328;-60
2021/12/18 11:04:02;;;;;;;5.43;5.23;;;6.70;56.60;;;;;;6236318;28;20456;-59
2021/12/18 11:07:17;;;;;;;6.10;5.63;;;6.90;56.30;;;;;;6237714;28;20237;-59
2021/12/18 11:10:39;;;;;;;6.20;5.77;;;6.90;56.90;;;;;;6237530;28;20329;-58
2021/12/18 11:13:45;;;;;;;6.30;5.80;;;6.70;56.10;;;;;;6220521;28;20233;-58
2021/12/18 11:16:50;;;;;;;6.10;5.70;;;7.00;56.00;;;;;;6236012;28;20234;-60
2021/12/18 11:19:55;;;;;;;6.20;5.87;;;6.80;56.30;;;;;;6240460;28;20245;-62
2021/12/18 11:22:58;;;;;;;5.17;4.83;;;7.10;56.60;;;;;;6239229;28;20243;-60
2021/12/18 11:26:02;;;;;;;6.13;5.73;;;6.90;55.60;;;;;;6235009;28;20231;-59
2021/12/18 11:29:05;;;;;;;6.03;5.63;;;7.00;55.40;;;;;;6245559;28;20362;-60
2021/12/18 11:32:10;;;;;;;6.00;5.60;;;6.90;56.70;;;;;;6232104;28;20227;-59
2021/12/18 11:35:17;;;;;;;5.50;5.10;;;6.90;56.80;;;;;;6234760;28;20613;-59
2021/12/18 11:38:20;;;;;;;5.13;4.93;;;6.80;56.60;;;;;;6234404;28;20242;-59
2021/12/18 11:41:24;;;;;;;4.90;4.60;;;7.10;55.90;;;;;;6230902;28;20727;-59
2021/12/18 11:44:31;;;;;;;3.90;3.80;;;7.00;55.70;;;;;;6230901;28;20313;-59
2021/12/18 11:47:35;;;;;;;4.17;4.07;;;6.90;52.90;;;;;;6233878;28;20616;-59
2021/12/18 11:50:40;;;;;;;4.33;3.77;;;7.00;52.80;;;;;;6234050;28;20289;-58
2021/12/18 11:53:42;;;;;;;4.10;4.00;;;6.90;51.50;;;;;;6222489;28;20608;-60
2021/12/18 11:56:47;;;;;;;4.17;4.07;;;6.90;51.80;;;;;;6242405;28;20241;-61
2021/12/18 11:59:49;;;;;;;4.00;3.90;;;6.90;51.70;;;;;;6235490;28;20241;-60
2021/12/18 12:02:54;;;;;;;4.00;3.80;;;7.10;51.30;;;;;;6234176;28;20272;-60
2021/12/18 12:06:00;;;;;;;4.47;4.30;;;7.10;51.30;;;;;;6232280;28;20250;-60
2021/12/18 12:09:22;;;;;;;4.00;3.90;;;7.00;51.20;;;;;;6229081;28;20310;-59
2021/12/18 12:12:52;;;;;;;4.23;4.10;;;7.00;50.50;;;;;;6208519;28;20234;-60
2021/12/18 12:15:55;;;;;;;3.83;3.70;;;7.10;49.80;;;;;;6205622;28;20262;-60
2021/12/18 12:19:05;;;;;;;4.47;4.07;;;7.10;49.80;;;;;;6208636;28;20240;-60
2021/12/18 12:22:30;;;;;;;4.27;4.03;;;7.10;49.80;;;;;;6217486;28;20374;-60
2021/12/18 12:25:36;;;;;;;3.70;3.60;;;7.20;49.50;;;;;;6217555;28;20249;-59
2021/12/18 12:28:53;;;;;;;5.10;4.07;;;7.20;48.60;;;;;;6218439;28;20480;-60
2021/12/18 12:31:58;;;;;;;3.70;3.60;;;7.20;47.20;;;;;;6205347;28;20610;-60
2021/12/18 12:35:07;;;;;;;4.20;3.93;;;7.30;46.90;;;;;;6204605;28;20484;-60
2021/12/18 12:38:22;;;;;;;3.67;3.57;;;7.30;47.40;;;;;;6210153;28;20326;-60
2021/12/18 12:41:36;;;;;;;4.10;3.90;;;7.30;48.40;;;;;;6209466;28;20239;-61
2021/12/18 12:44:49;;;;;;;4.20;4.00;;;7.30;49.10;;;;;;6216176;28;20227;-64
2021/12/18 12:47:57;;;;;;;4.13;4.03;;;7.30;50.00;;;;;;6225413;28;20250;-59
2021/12/18 12:51:03;;;;;;;4.40;4.20;;;7.30;50.40;;;;;;6237579;28;20913;-58
2021/12/18 12:54:08;;;;;;;4.10;3.90;;;7.30;50.70;;;;;;6232217;28;20376;-59
2021/12/18 12:57:47;;;;;;;3.63;3.50;;;7.30;51.00;;;;;;6230258;28;20734;-60
2021/12/18 13:00:55;;;;;;;3.47;3.37;;;7.30;50.20;;;;;;6206609;28;20309;-60
2021/12/18 13:03:59;;;;;;;3.90;3.80;;;7.30;51.30;;;;;;6206691;28;20250;-61
2021/12/18 13:07:05;;;;;;;3.73;3.60;;;7.20;51.00;;;;;;6206807;28;20258;-58
2021/12/18 13:10:10;;;;;;;3.70;3.50;;;7.20;52.00;;;;;;6233081;28;20312;-59
2021/12/18 13:13:14;;;;;;;3.23;3.20;;;7.10;52.00;;;;;;6236441;28;20318;-58
2021/12/18 13:16:19;;;;;;;3.40;3.40;;;7.30;52.30;;;;;;6231191;28;20246;-61
2021/12/18 13:19:21;;;;;;;3.60;3.50;;;7.30;52.50;;;;;;6232124;28;20304;-61
2021/12/18 13:22:29;;;;;;;3.80;3.70;;;7.30;53.70;;;;;;6209979;28;20364;-59
2021/12/18 13:25:33;;;;;;;3.80;3.60;;;7.30;53.80;;;;;;6227066;28;20345;-59
2021/12/18 13:28:45;;;;;;;3.60;3.40;;;7.40;53.20;;;;;;6229941;28;20313;-60
2021/12/18 13:31:50;;;;;;;3.97;3.87;;;7.40;53.50;;;;;;6234081;28;20322;-61
2021/12/18 13:34:53;;;;;;;3.73;3.53;;;7.40;53.60;;;;;;6225580;28;20246;-60
2021/12/18 13:37:57;;;;;;;3.27;3.20;;;7.40;54.10;;;;;;6227553;28;20242;-60
2021/12/18 13:41:01;;;;;;;3.70;3.50;;;7.40;52.90;;;;;;6235050;28;20322;-59
2021/12/18 13:44:05;;;;;;;3.20;3.20;;;7.60;53.30;;;;;;6232074;28;20433;-60
2021/12/18 13:47:20;;;;;;;3.47;3.40;;;7.40;52.90;;;;;;6228821;28;20476;-60
2021/12/18 13:50:25;;;;;;;3.17;3.10;;;7.40;53.30;;;;;;6224310;28;20237;-60
2021/12/18 13:53:28;;;;;;;3.40;3.40;;;7.40;52.70;;;;;;6227796;28;20795;-59
2021/12/18 13:56:35;;;;;;;3.33;3.33;;;7.40;53.70;;;;;;6229340;28;20241;-60
2021/12/18 13:59:40;;;;;;;3.23;3.13;;;7.40;54.20;;;;;;6229798;28;20840;-59
2021/12/18 14:02:45;;;;;;;3.57;3.47;;;7.40;55.20;;;;;;6223949;28;20318;-60
2021/12/18 14:05:49;;;;;;;3.73;3.73;;;7.50;54.80;;;;;;6232510;28;20308;-57
2021/12/18 14:08:56;;;;;;;4.00;3.80;;;7.40;55.60;;;;;;6240666;28;20744;-58
2021/12/18 14:12:05;;;;;;;3.70;3.60;;;7.80;55.90;;;;;;6232967;28;20321;-60
2021/12/18 14:15:18;;;;;;;3.80;3.70;;;7.40;56.00;;;;;;6228108;28;20226;-59
2021/12/18 14:18:32;;;;;;;3.50;3.50;;;7.40;57.40;;;;;;6230382;28;20223;-59
2021/12/18 14:21:41;;;;;;;4.17;3.97;;;7.50;56.70;;;;;;6230079;28;20307;-60
2021/12/18 14:24:44;;;;;;;3.67;3.57;;;7.40;56.50;;;;;;6227061;28;20314;-59
2021/12/18 14:27:50;;;;;;;3.77;3.60;;;7.40;56.00;;;;;;6233332;28;20360;-58
2021/12/18 14:30:53;;;;;;;3.27;3.27;;;7.40;55.10;;;;;;6235996;28;20508;-59
2021/12/18 14:33:57;;;;;;;4.20;4.10;;;7.30;54.50;;;;;;6235558;28;20239;-59
2021/12/18 14:37:07;;;;;;;4.00;3.90;;;7.40;54.10;;;;;;6237010;28;20235;-60
2021/12/18 14:40:17;;;;;;;4.53;4.43;;;7.40;54.70;;;;;;6226858;28;20953;-58
2021/12/18 14:43:25;;;;;;;4.20;4.10;;;7.30;56.00;;;;;;6236403;28;20227;-61
2021/12/18 14:46:27;;;;;;;5.20;5.10;;;7.30;56.10;;;;;;6236669;28;20451;-58
2021/12/18 14:49:30;;;;;;;5.00;4.90;;;7.30;56.40;;;;;;6232962;28;20314;-60
2021/12/18 14:52:53;;;;;;;5.33;5.07;;;7.60;57.40;;;;;;6239286;28;20320;-57
2021/12/18 14:55:57;;;;;;;5.97;5.53;;;7.20;55.90;;;;;;6224364;28;20768;-58
2021/12/18 14:59:16;;;;;;;5.53;5.33;;;7.20;54.90;;;;;;6238455;28;20310;-57
2021/12/18 15:02:19;;;;;;;5.40;5.20;;;7.10;54.50;;;;;;6235096;28;20239;-61
2021/12/18 15:05:25;;;;;;;4.90;4.73;;;7.10;54.30;;;;;;6238719;28;20226;-59
2021/12/18 15:08:36;;;;;;;5.13;5.03;;;7.10;54.70;;;;;;6241530;28;20234;-58
2021/12/18 15:11:46;;;;;;;5.10;4.90;;;7.10;55.60;;;;;;6239323;28;20345;-57
2021/12/18 15:14:50;;;;;;;5.23;4.93;;;7.10;55.50;;;;;;6230728;28;20345;-57
2021/12/18 15:17:53;;;;;;;6.43;6.13;;;7.00;56.00;;;;;;6239730;28;21032;-59
2021/12/18 15:20:55;;;;;;;5.53;5.23;;;7.10;57.40;;;;;;6237977;28;20239;-58
2021/12/18 15:24:00;;;;;;;5.70;5.40;;;7.20;58.00;;;;;;6243274;28;20662;-59
2021/12/18 15:27:05;;;;;;;5.87;5.57;;;7.20;58.00;;;;;;6240614;28;20329;-58
2021/12/18 15:30:10;;;;;;;5.90;5.60;;;7.10;57.90;;;;;;6232164;28;20335;-58
2021/12/18 15:33:13;;;;;;;6.07;5.53;;;7.00;58.70;;;;;;6238359;28;20671;-58
2021/12/18 15:36:16;;;;;;;5.60;5.30;;;7.30;59.50;;;;;;6231913;28;20329;-58
2021/12/18 15:39:19;;;;;;;5.93;5.53;;;7.00;59.80;;;;;;6240443;28;20223;-58
2021/12/18 15:42:26;;;;;;;6.00;5.70;;;7.00;60.10;;;;;;6246171;28;20316;-60
2021/12/18 15:45:30;;;;;;;5.87;5.63;;;7.00;60.10;;;;;;6234584;28;20248;-59
2021/12/18 15:48:33;;;;;;;6.40;6.03;;;7.00;60.10;;;;;;6237818;28;20372;-59
2021/12/18 15:51:38;;;;;;;6.43;5.93;;;7.20;60.30;;;;;;6242404;28;20234;-62
2021/12/18 15:54:41;;;;;;;6.43;5.93;;;7.10;60.20;;;;;;6221030;28;20237;-59
2021/12/18 15:57:44;;;;;;;6.70;6.30;;;7.10;60.60;;;;;;6237136;28;20304;-58
2021/12/18 16:00:49;;;;;;;6.93;6.33;;;7.10;60.70;;;;;;6237665;28;20246;-59
2021/12/18 16:03:52;;;;;;;7.00;6.30;;;7.30;61.30;;;;;;6235748;28;20844;-58
2021/12/18 16:06:56;;;;;;;7.40;6.90;;;7.00;61.30;;;;;;6234526;28;20243;-58
2021/12/18 16:09:59;;;;;;;7.47;6.83;;;7.40;61.70;;;;;;6245753;28;20269;-59
2021/12/18 16:13:01;;;;;;;7.43;6.93;;;7.20;61.40;;;;;;6236957;28;20237;-59
2021/12/18 16:16:06;;;;;;;7.70;7.10;;;7.20;61.30;;;;;;6238726;28;20234;-60
2021/12/18 16:19:09;;;;;;;6.53;6.13;;;7.20;60.80;;;;;;6235598;28;20324;-59
2021/12/18 16:22:12;;;;;;;6.87;6.53;;;7.20;60.30;;;;;;6232437;28;20304;-60
2021/12/18 16:25:15;;;;;;;6.80;6.40;;;7.20;60.40;;;;;;6239286;28;20623;-59
2021/12/18 16:28:18;;;;;;;7.43;6.67;;;7.20;60.30;;;;;;6241540;28;20276;-60
2021/12/18 16:31:22;;;;;;;6.80;6.37;;;7.20;60.30;;;;;;6240529;28;20276;-60
2021/12/18 16:34:25;;;;;;;7.40;6.90;;;7.20;59.40;;;;;;6240169;28;20231;-61
2021/12/18 16:37:31;;;;;;;9.13;8.33;;;7.30;59.00;;;;;;6234312;28;20277;-58
2021/12/18 16:40:36;;;;;;;9.27;8.57;;;7.30;57.80;;;;;;6235387;28;20237;-58
2021/12/18 16:43:40;;;;;;;9.57;8.63;;;7.20;58.10;;;;;;6233231;28;20361;-58
2021/12/18 16:46:44;;;;;;;10.90;9.90;;;7.20;57.70;;;;;;6228029;28;20247;-57
2021/12/18 16:49:54;;;;;;;9.90;9.00;;;7.20;58.40;;;;;;6205613;28;20283;-59